createdAt,value
2022-11-04T00:00:55.313Z,8.50
2022-11-04T00:03:24.284Z,8.50
2022-11-04T00:05:51.071Z,8.50
2022-11-04T00:08:23.767Z,8.50
2022-11-04T00:11:16.813Z,8.50
2022-11-04T00:13:46.061Z,8.50
2022-11-04T00:16:31.657Z,8.50
2022-11-04T00:19:00.618Z,8.60
2022-11-04T00:21:46.837Z,8.60
2022-11-04T00:24:49.569Z,8.60
2022-11-04T00:27:37.397Z,8.60
2022-11-04T00:30:08.076Z,8.60
2022-11-04T00:32:53.994Z,8.70
2022-11-04T00:35:21.857Z,8.70
2022-11-04T00:37:48.675Z,8.70
2022-11-04T00:40:16.618Z,8.70
2022-11-04T00:42:45.329Z,8.70
2022-11-04T00:45:14.501Z,8.70
2022-11-04T00:47:41.312Z,8.80
2022-11-04T00:50:08.729Z,8.80
2022-11-04T00:52:35.794Z,8.80
2022-11-04T00:55:40.411Z,8.80
2022-11-04T00:58:07.186Z,8.80
2022-11-04T01:00:33.962Z,8.80
2022-11-04T01:03:01.014Z,8.80
2022-11-04T01:05:29.163Z,8.90
2022-11-04T01:07:56.873Z,8.80
2022-11-04T01:10:23.833Z,8.80
2022-11-04T01:12:52.803Z,8.80
2022-11-04T01:15:19.945Z,8.80
2022-11-04T01:17:46.834Z,8.80
2022-11-04T01:20:13.954Z,8.80
2022-11-04T01:22:40.752Z,8.80
2022-11-04T01:25:09.691Z,8.80
2022-11-04T01:27:36.795Z,8.80
2022-11-04T01:30:04.542Z,8.80
2022-11-04T01:32:31.399Z,8.80
2022-11-04T01:34:59.218Z,8.80
2022-11-04T01:37:26.154Z,8.80
2022-11-04T01:39:52.956Z,8.70
2022-11-04T01:42:22.227Z,8.70
2022-11-04T01:45:00.864Z,8.70
2022-11-04T01:47:42.684Z,8.70
2022-11-04T01:50:13.073Z,8.70
2022-11-04T01:53:11.516Z,8.70
2022-11-04T01:55:49.237Z,8.70
2022-11-04T01:58:18.751Z,8.70
2022-11-04T02:00:46.494Z,8.70
2022-11-04T02:03:20.655Z,8.70
2022-11-04T02:05:48.374Z,8.70
2022-11-04T02:08:17.919Z,8.70
2022-11-04T02:10:52.094Z,8.70
2022-11-04T02:13:18.955Z,8.70
2022-11-04T02:16:09.029Z,8.70
2022-11-04T02:19:14.814Z,8.70
2022-11-04T02:21:50.494Z,8.70
2022-11-04T02:24:41.316Z,8.70
2022-11-04T02:27:46.594Z,8.60
2022-11-04T02:30:18.764Z,8.60
2022-11-04T02:33:16.690Z,8.70
2022-11-04T02:35:46.421Z,8.70
2022-11-04T02:38:30.085Z,8.70
2022-11-04T02:41:12.300Z,8.70
2022-11-04T02:44:17.666Z,8.70
2022-11-04T02:46:53.213Z,8.70
2022-11-04T02:49:41.346Z,8.70
2022-11-04T02:52:16.367Z,8.70
2022-11-04T02:54:51.748Z,8.70
2022-11-04T02:57:26.369Z,8.70
2022-11-04T03:00:00.794Z,8.70
2022-11-04T03:02:39.926Z,8.70
2022-11-04T03:05:11.822Z,8.80
2022-11-04T03:07:41.612Z,8.80
2022-11-04T03:10:16.747Z,8.80
2022-11-04T03:12:59.573Z,8.80
2022-11-04T03:15:31.589Z,8.80
2022-11-04T03:18:29.513Z,8.70
2022-11-04T03:20:59.845Z,8.70
2022-11-04T03:24:04.595Z,8.70
2022-11-04T03:26:41.030Z,8.70
2022-11-04T03:29:22.835Z,8.60
2022-11-04T03:32:09.080Z,8.60
2022-11-04T03:34:37.455Z,8.60
2022-11-04T03:37:04.798Z,8.60
2022-11-04T03:39:32.057Z,8.60
2022-11-04T03:42:03.579Z,8.60
2022-11-04T03:44:50.295Z,8.50
2022-11-04T03:47:18.931Z,8.50
2022-11-04T03:49:48.071Z,8.40
2022-11-04T03:52:16.642Z,8.40
2022-11-04T03:54:44.740Z,8.30
2022-11-04T03:57:49.569Z,8.30
2022-11-04T04:00:21.537Z,8.30
2022-11-04T04:03:09.507Z,8.20
2022-11-04T04:06:07.179Z,8.20
2022-11-04T04:08:44.784Z,8.10
2022-11-04T04:11:57.079Z,8.10
2022-11-04T04:14:44.173Z,8.10
2022-11-04T04:17:29.779Z,8.10
2022-11-04T04:20:11.993Z,8.10
2022-11-04T04:23:24.476Z,8.10
2022-11-04T04:26:12.147Z,8.00
2022-11-04T04:28:40.234Z,8.00
2022-11-04T04:31:09.350Z,8.00
2022-11-04T04:34:15.194Z,8.00
2022-11-04T04:36:49.244Z,8.00
2022-11-04T04:39:39.090Z,7.90
2022-11-04T04:42:26.071Z,7.90
2022-11-04T04:45:00.962Z,7.90
2022-11-04T04:47:44.403Z,7.90
2022-11-04T04:50:15.102Z,7.90
2022-11-04T04:52:45.580Z,7.80
2022-11-04T04:55:13.629Z,7.80
2022-11-04T04:57:40.599Z,7.80
2022-11-04T05:00:10.252Z,7.80
2022-11-04T05:02:37.243Z,7.70
2022-11-04T05:05:06.075Z,7.70
2022-11-04T05:07:33.126Z,7.70
2022-11-04T05:09:59.982Z,7.60
2022-11-04T05:12:46.886Z,7.60
2022-11-04T05:15:13.854Z,7.50
2022-11-04T05:17:40.630Z,7.50
2022-11-04T05:20:08.238Z,7.50
2022-11-04T05:22:35.082Z,7.50
2022-11-04T05:25:02.034Z,7.50
2022-11-04T05:27:28.896Z,7.40
2022-11-04T05:29:55.729Z,7.30
2022-11-04T05:32:22.526Z,7.30
2022-11-04T05:34:50.587Z,7.40
2022-11-04T05:37:17.370Z,7.30
2022-11-04T05:39:44.202Z,7.30
2022-11-04T05:42:10.974Z,7.30
2022-11-04T05:44:38.250Z,7.20
2022-11-04T05:47:05.093Z,7.20
2022-11-04T05:49:31.912Z,7.20
2022-11-04T05:51:58.714Z,7.10
2022-11-04T05:55:03.342Z,7.10
2022-11-04T05:57:30.214Z,7.10
2022-11-04T05:59:56.986Z,7.00
2022-11-04T06:02:23.916Z,7.00
2022-11-04T06:05:28.481Z,7.00
2022-11-04T06:07:56.165Z,7.00
2022-11-04T06:10:23.605Z,7.00
2022-11-04T06:12:50.510Z,7.00
2022-11-04T06:15:22.397Z,7.00
2022-11-04T06:17:49.503Z,7.00
2022-11-04T06:20:16.488Z,6.90
2022-11-04T06:22:43.261Z,6.90
2022-11-04T06:25:11.514Z,6.90
2022-11-04T06:27:38.308Z,6.90
2022-11-04T06:30:05.605Z,6.90
2022-11-04T06:32:33.133Z,6.80
2022-11-04T06:35:01.151Z,6.80
2022-11-04T06:37:28.245Z,6.70
2022-11-04T06:39:55.014Z,6.70
2022-11-04T06:42:21.822Z,6.70
2022-11-04T06:44:50.071Z,6.60
2022-11-04T06:47:22.113Z,6.60
2022-11-04T06:49:51.370Z,6.50
2022-11-04T06:52:18.167Z,6.50
2022-11-04T06:55:09.340Z,6.50
2022-11-04T06:57:36.159Z,6.40
2022-11-04T07:00:04.185Z,6.40
2022-11-04T07:02:31.122Z,6.30
2022-11-04T07:07:30.505Z,6.30
2022-11-04T07:09:57.298Z,6.20
2022-11-04T07:12:24.733Z,6.20
2022-11-04T07:14:52.196Z,6.20
2022-11-04T07:17:18.994Z,6.30
2022-11-04T07:19:45.914Z,6.20
2022-11-04T07:22:13.004Z,6.20
2022-11-04T07:24:41.062Z,6.20
2022-11-04T07:27:07.925Z,6.20
2022-11-04T07:29:34.853Z,6.20
2022-11-04T07:32:01.707Z,6.20
2022-11-04T07:34:28.869Z,6.10
2022-11-04T07:36:55.750Z,6.10
2022-11-04T07:39:22.576Z,6.10
2022-11-04T07:41:49.531Z,6.10
2022-11-04T07:44:17.539Z,6.20
2022-11-04T07:46:44.354Z,6.20
2022-11-04T07:49:11.184Z,6.20
2022-11-04T07:51:38.003Z,6.20
2022-11-04T07:54:05.025Z,6.20
2022-11-04T07:56:32.048Z,6.30
2022-11-04T07:58:58.895Z,6.30
2022-11-04T08:01:25.824Z,6.40
2022-11-04T08:03:54.080Z,6.40
2022-11-04T08:06:21.595Z,6.50
2022-11-04T08:08:48.530Z,6.50
2022-11-04T08:11:21.469Z,6.50
2022-11-04T08:14:07.351Z,6.60
2022-11-04T08:16:34.714Z,6.60
2022-11-04T08:19:02.477Z,6.70
2022-11-04T08:21:31.712Z,6.70
2022-11-04T08:23:58.917Z,6.80
2022-11-04T08:26:25.878Z,6.80
2022-11-04T08:28:53.053Z,6.90
2022-11-04T08:31:24.464Z,7.00
2022-11-04T08:33:52.419Z,7.10
2022-11-04T08:36:24.994Z,7.20
2022-11-04T08:38:52.476Z,7.20
2022-11-04T08:41:22.054Z,7.30
2022-11-04T08:43:50.519Z,7.40
2022-11-04T08:46:17.442Z,7.40
2022-11-04T08:48:45.567Z,7.50
2022-11-04T08:51:19.231Z,7.60
2022-11-04T08:53:47.457Z,7.60
2022-11-04T08:56:26.939Z,7.70
2022-11-04T08:58:54.546Z,7.80
2022-11-04T09:01:22.180Z,7.90
2022-11-04T09:04:08.141Z,7.90
2022-11-04T09:06:38.685Z,8.00
2022-11-04T09:09:07.266Z,8.00
2022-11-04T09:11:38.237Z,8.10
2022-11-04T09:14:07.023Z,8.20
2022-11-04T09:16:35.510Z,8.20
2022-11-04T09:19:03.233Z,8.30
2022-11-04T09:21:30.116Z,8.40
2022-11-04T09:23:57.409Z,8.50
2022-11-04T09:26:24.799Z,8.50
2022-11-04T09:28:56.374Z,8.60
2022-11-04T09:31:23.816Z,8.80
2022-11-04T09:33:51.010Z,8.90
2022-11-04T09:36:17.921Z,9.10
2022-11-04T09:38:45.131Z,9.40
2022-11-04T09:41:38.246Z,9.60
2022-11-04T09:44:20.335Z,10.00
2022-11-04T09:46:49.680Z,10.60
2022-11-04T09:49:16.889Z,11.20
2022-11-04T09:51:55.619Z,11.80
2022-11-04T09:54:31.270Z,12.30
2022-11-04T09:57:01.719Z,12.90
2022-11-04T09:59:34.336Z,13.40
2022-11-04T10:02:13.524Z,13.70
2022-11-04T10:05:03.816Z,14.10
2022-11-04T10:07:54.310Z,14.50
2022-11-04T10:10:21.047Z,14.90
2022-11-04T10:13:13.396Z,15.20
2022-11-04T10:15:40.167Z,15.60
2022-11-04T10:18:25.016Z,15.90
2022-11-04T10:20:59.529Z,16.10
2022-11-04T10:23:46.039Z,16.40
2022-11-04T10:26:52.130Z,16.80
2022-11-04T10:29:29.949Z,17.20
2022-11-04T10:31:59.886Z,17.60
2022-11-04T10:34:39.609Z,18.00
2022-11-04T10:37:12.418Z,18.50
2022-11-04T10:39:47.036Z,18.70
2022-11-04T10:42:22.130Z,18.90
2022-11-04T10:44:52.338Z,18.90
2022-11-04T10:47:43.040Z,18.80
2022-11-04T10:50:29.728Z,18.90
2022-11-04T10:53:30.997Z,19.20
2022-11-04T10:56:01.712Z,19.50
2022-11-04T10:58:39.489Z,19.80
2022-11-04T11:01:27.141Z,19.90
2022-11-04T11:04:23.728Z,19.90
2022-11-04T11:06:53.120Z,20.10
2022-11-04T11:09:29.518Z,20.40
2022-11-04T11:12:56.026Z,20.30
2022-11-04T11:15:32.650Z,20.20
2022-11-04T11:18:22.301Z,20.50
2022-11-04T11:20:52.265Z,20.30
2022-11-04T11:23:39.275Z,19.80
2022-11-04T11:26:17.131Z,19.10
2022-11-04T11:28:59.113Z,18.30
2022-11-04T11:31:34.587Z,17.00
2022-11-04T11:34:06.206Z,16.50
2022-11-04T11:36:37.193Z,16.20
2022-11-04T11:39:17.345Z,16.20
2022-11-04T11:41:56.050Z,16.30
2022-11-04T11:44:34.945Z,16.00
2022-11-04T11:47:07.847Z,15.40
2022-11-04T11:49:37.093Z,14.90
2022-11-04T11:52:22.681Z,14.40
2022-11-04T11:54:54.469Z,14.00
2022-11-04T11:57:25.599Z,13.80
2022-11-04T12:03:03.115Z,13.20
2022-11-04T12:09:23.330Z,12.50
2022-11-04T12:12:19.121Z,12.30
2022-11-04T12:15:32.790Z,12.00
2022-11-04T12:18:23.835Z,11.90
2022-11-04T12:21:03.560Z,11.80
2022-11-04T12:24:27.878Z,11.80
2022-11-04T12:27:17.242Z,11.70
2022-11-04T12:30:07.354Z,11.70
2022-11-04T12:32:52.374Z,11.70
2022-11-04T12:35:22.141Z,11.60
2022-11-04T12:38:11.477Z,11.60
2022-11-04T12:41:26.305Z,11.60
2022-11-04T12:44:06.094Z,11.60
2022-11-04T12:46:44.916Z,11.50
2022-11-04T12:49:29.804Z,11.50
2022-11-04T12:52:23.542Z,11.50
2022-11-04T12:54:57.288Z,11.40
2022-11-04T12:57:41.295Z,11.40
2022-11-04T13:00:17.544Z,11.40
2022-11-04T13:03:04.966Z,11.30
2022-11-04T13:05:53.602Z,11.30
2022-11-04T13:08:42.792Z,11.30
2022-11-04T13:11:24.645Z,11.30
2022-11-04T13:14:29.830Z,11.30
2022-11-04T13:17:00.918Z,11.30
2022-11-04T13:19:47.353Z,11.30
2022-11-04T13:22:32.716Z,11.30
2022-11-04T13:25:15.184Z,11.30
2022-11-04T13:27:45.656Z,11.30
2022-11-04T13:30:30.260Z,11.30
2022-11-04T13:33:10.500Z,11.30
2022-11-04T13:35:58.793Z,11.30
2022-11-04T13:38:32.443Z,11.30
2022-11-04T13:41:22.198Z,11.30
2022-11-04T13:43:53.555Z,11.20
2022-11-04T13:46:29.870Z,11.20
2022-11-04T13:49:11.285Z,11.20
2022-11-04T13:51:47.194Z,11.20
2022-11-04T13:54:25.353Z,11.20
2022-11-04T13:57:04.589Z,11.20
2022-11-04T13:59:32.027Z,11.20
2022-11-04T14:02:11.627Z,11.20
2022-11-04T14:04:41.141Z,11.10
2022-11-04T14:07:11.531Z,11.10
2022-11-04T14:09:44.630Z,11.10
2022-11-04T14:12:11.524Z,11.10
2022-11-04T14:14:40.704Z,11.10
2022-11-04T14:17:35.450Z,11.10
2022-11-04T14:20:06.151Z,11.10
2022-11-04T14:22:55.720Z,11.10
2022-11-04T14:25:33.516Z,11.00
2022-11-04T14:28:17.677Z,11.00
2022-11-04T14:30:45.765Z,11.00
2022-11-04T14:33:36.462Z,11.00
2022-11-04T14:36:21.709Z,11.00
2022-11-04T14:39:10.240Z,10.90
2022-11-04T14:41:40.238Z,11.00
2022-11-04T14:44:13.252Z,11.00
2022-11-04T14:46:54.342Z,11.00
2022-11-04T14:49:38.393Z,11.00
2022-11-04T14:52:19.291Z,11.10
2022-11-04T14:54:46.733Z,11.10
2022-11-04T14:57:18.908Z,11.20
2022-11-04T14:59:46.641Z,11.30
2022-11-04T15:02:21.181Z,11.40
2022-11-04T15:04:59.450Z,11.50
2022-11-04T15:07:46.563Z,11.60
2022-11-04T15:10:26.094Z,11.70
2022-11-04T15:13:00.029Z,11.70
2022-11-04T15:15:38.052Z,11.70
2022-11-04T15:18:08.202Z,11.70
2022-11-04T15:21:12.572Z,12.30
2022-11-04T15:23:47.967Z,13.10
2022-11-04T15:26:29.433Z,13.90
2022-11-04T15:28:58.890Z,14.30
2022-11-04T15:31:28.405Z,14.30
2022-11-04T15:33:58.940Z,13.90
2022-11-04T15:36:43.598Z,13.70
2022-11-04T15:39:22.544Z,13.30
2022-11-04T15:42:20.417Z,13.00
2022-11-04T15:44:51.090Z,12.70
2022-11-04T15:47:17.904Z,12.40
2022-11-04T15:49:49.471Z,12.20
2022-11-04T15:52:23.787Z,12.00
2022-11-04T15:54:53.757Z,11.80
2022-11-04T15:57:33.540Z,11.60
2022-11-04T16:00:07.268Z,11.30
2022-11-04T16:02:48.862Z,11.10
2022-11-04T16:05:15.878Z,10.90
2022-11-04T16:07:45.144Z,10.80
2022-11-04T16:10:37.376Z,10.60
2022-11-04T16:13:23.361Z,10.50
2022-11-04T16:16:09.347Z,10.40
2022-11-04T16:18:38.934Z,10.30
2022-11-04T16:21:07.803Z,10.20
2022-11-04T16:23:43.209Z,10.10
2022-11-04T16:26:10.487Z,10.10
2022-11-04T16:28:39.516Z,9.90
2022-11-04T16:31:33.262Z,9.90
2022-11-04T16:34:00.477Z,9.80
2022-11-04T16:36:34.095Z,9.70
2022-11-04T16:39:04.644Z,9.70
2022-11-04T16:41:36.603Z,9.70
2022-11-04T16:44:05.117Z,9.70
2022-11-04T16:46:35.115Z,9.60
2022-11-04T16:49:01.978Z,9.70
2022-11-04T16:51:28.801Z,9.70
2022-11-04T16:53:55.611Z,9.90
2022-11-04T16:56:24.700Z,10.00
2022-11-04T16:58:52.948Z,10.00
2022-11-04T17:01:21.265Z,10.10
2022-11-04T17:03:48.521Z,10.10
2022-11-04T17:06:19.082Z,10.20
2022-11-04T17:08:46.157Z,10.20
2022-11-04T17:11:13.420Z,10.30
2022-11-04T17:13:41.503Z,10.40
2022-11-04T17:16:12.943Z,10.30
2022-11-04T17:18:39.789Z,10.30
2022-11-04T17:21:09.171Z,10.30
2022-11-04T17:23:58.777Z,10.40
2022-11-04T17:26:25.618Z,10.40
2022-11-04T17:28:52.640Z,10.40
2022-11-04T17:31:20.322Z,10.40
2022-11-04T17:33:47.508Z,10.30
2022-11-04T17:39:00.399Z,10.40
2022-11-04T17:41:45.593Z,10.40
2022-11-04T17:44:36.686Z,10.30
2022-11-04T17:47:03.725Z,10.30
2022-11-04T17:49:30.754Z,10.30
2022-11-04T17:52:00.577Z,10.30
2022-11-04T17:54:31.599Z,10.20
2022-11-04T17:56:58.714Z,10.00
2022-11-04T17:59:25.797Z,9.90
2022-11-04T18:01:53.380Z,9.70
2022-11-04T18:04:23.679Z,9.60
2022-11-04T18:06:51.721Z,9.40
2022-11-04T18:09:19.070Z,9.30
2022-11-04T18:12:04.973Z,9.20
2022-11-04T18:14:50.618Z,9.00
2022-11-04T18:17:17.431Z,8.90
2022-11-04T18:19:44.229Z,8.70
2022-11-04T18:22:11.050Z,8.60
2022-11-04T18:25:16.828Z,8.40
2022-11-04T18:27:43.678Z,8.40
2022-11-04T18:30:11.104Z,8.20
2022-11-04T18:32:37.935Z,8.20
2022-11-04T18:35:07.302Z,8.10
2022-11-04T18:37:34.212Z,8.00
2022-11-04T18:40:01.009Z,7.90
2022-11-04T18:42:27.817Z,7.80
2022-11-04T18:44:57.818Z,7.80
2022-11-04T18:47:24.655Z,7.70
2022-11-04T18:49:52.114Z,7.70
2022-11-04T18:52:19.035Z,7.60
2022-11-04T18:54:48.014Z,7.50
2022-11-04T18:57:14.826Z,7.50
2022-11-04T18:59:41.694Z,7.50
2022-11-04T19:02:23.460Z,7.50
2022-11-04T19:05:29.967Z,7.50
2022-11-04T19:07:56.785Z,7.50
2022-11-04T19:10:23.651Z,7.50
2022-11-04T19:13:09.551Z,7.50
2022-11-04T19:15:36.905Z,7.40
2022-11-04T19:18:03.819Z,7.30
2022-11-04T19:20:30.609Z,7.20
2022-11-04T19:22:57.453Z,7.10
2022-11-04T19:25:25.211Z,7.00
2022-11-04T19:28:11.699Z,6.90
2022-11-04T19:30:39.605Z,6.80
2022-11-04T19:33:06.637Z,6.70
2022-11-04T19:36:12.585Z,6.60
2022-11-04T19:38:39.656Z,6.60
2022-11-04T19:41:34.997Z,6.50
2022-11-04T19:44:06.791Z,6.40
2022-11-04T19:46:33.830Z,6.30
2022-11-04T19:49:00.847Z,6.30
2022-11-04T19:51:31.947Z,6.20
2022-11-04T19:53:59.908Z,6.10
2022-11-04T19:56:27.090Z,6.10
2022-11-04T19:58:54.438Z,6.10
2022-11-04T20:01:21.843Z,6.00
2022-11-04T20:03:49.022Z,6.00
2022-11-04T20:06:16.608Z,6.00
2022-11-04T20:08:45.166Z,6.10
2022-11-04T20:11:13.859Z,6.00
2022-11-04T20:13:43.990Z,6.00
2022-11-04T20:16:15.699Z,5.90
2022-11-04T20:18:43.091Z,5.90
2022-11-04T20:21:09.919Z,5.80
2022-11-04T20:24:14.880Z,5.80
2022-11-04T20:26:46.921Z,5.70
2022-11-04T20:29:16.087Z,5.60
2022-11-04T20:31:43.577Z,5.60
2022-11-04T20:34:14.294Z,5.60
2022-11-04T20:36:42.033Z,5.50
2022-11-04T20:39:16.837Z,5.50
2022-11-04T20:41:46.481Z,5.50
2022-11-04T20:44:16.159Z,5.50
2022-11-04T20:46:44.069Z,5.40
2022-11-04T20:49:11.946Z,5.40
2022-11-04T20:51:50.097Z,5.40
2022-11-04T20:54:19.286Z,5.40
2022-11-04T20:56:46.130Z,5.40
2022-11-04T20:59:13.909Z,5.40
2022-11-04T21:01:42.987Z,5.30
2022-11-04T21:04:19.827Z,5.30
2022-11-04T21:06:48.945Z,5.20
2022-11-04T21:09:17.762Z,5.30
2022-11-04T21:11:44.887Z,5.20
2022-11-04T21:14:49.664Z,5.20
2022-11-04T21:17:16.490Z,5.10
2022-11-04T21:19:43.365Z,5.10
2022-11-04T21:22:10.154Z,5.10
2022-11-04T21:24:55.921Z,5.00
2022-11-04T21:27:22.721Z,5.00
2022-11-04T21:29:49.923Z,5.00
2022-11-04T21:32:16.732Z,5.00
2022-11-04T21:34:44.826Z,4.90
2022-11-04T21:37:11.652Z,4.90
2022-11-04T21:39:38.559Z,4.90
2022-11-04T21:42:05.419Z,4.90
2022-11-04T21:44:33.452Z,4.80
2022-11-04T21:47:00.246Z,4.80
2022-11-04T21:49:27.094Z,4.80
2022-11-04T21:51:53.943Z,4.80
2022-11-04T21:54:22.063Z,4.70
2022-11-04T21:56:50.546Z,4.70
2022-11-04T21:59:18.640Z,4.70
2022-11-04T22:01:45.882Z,4.70
2022-11-04T22:04:13.254Z,4.70
2022-11-04T22:06:40.140Z,4.60
2022-11-04T22:09:09.103Z,4.60
2022-11-04T22:11:38.959Z,4.60
2022-11-04T22:14:08.376Z,4.60
2022-11-04T22:16:38.503Z,4.60
2022-11-04T22:19:07.857Z,4.50
2022-11-04T22:21:37.687Z,4.50
2022-11-04T22:24:06.839Z,4.50
2022-11-04T22:26:33.643Z,4.50
2022-11-04T22:29:00.559Z,4.40
2022-11-04T22:31:35.351Z,4.40
2022-11-04T22:34:05.441Z,4.40
2022-11-04T22:36:33.176Z,4.40
2022-11-04T22:39:00.286Z,4.40
2022-11-04T22:41:30.436Z,4.40
2022-11-04T22:43:58.915Z,4.30
2022-11-04T22:46:29.119Z,4.30
2022-11-04T22:48:56.249Z,4.30
2022-11-04T22:51:23.537Z,4.30
2022-11-04T22:53:57.690Z,4.30
2022-11-04T22:56:25.944Z,4.20
2022-11-04T22:58:54.152Z,4.20
2022-11-04T23:01:21.471Z,4.20
2022-11-04T23:03:51.821Z,4.10
2022-11-04T23:06:19.280Z,4.10
2022-11-04T23:08:46.372Z,4.00
2022-11-04T23:11:38.776Z,4.00
2022-11-04T23:14:25.174Z,4.00
2022-11-04T23:17:11.193Z,4.00
2022-11-04T23:19:39.111Z,3.90
2022-11-04T23:22:25.296Z,3.90
2022-11-04T23:25:06.873Z,3.90
2022-11-04T23:27:57.345Z,3.90
2022-11-04T23:30:27.987Z,3.90
2022-11-04T23:33:00.320Z,3.90
2022-11-04T23:36:05.721Z,3.90
2022-11-04T23:38:33.106Z,3.90
2022-11-04T23:41:24.789Z,3.90
2022-11-04T23:43:53.349Z,3.90
2022-11-04T23:46:43.031Z,3.80
2022-11-04T23:49:30.555Z,3.80
2022-11-04T23:52:16.228Z,3.80
2022-11-04T23:55:01.755Z,3.80
2022-11-04T23:57:46.994Z,3.80
